createdAt,value
2022-10-23T00:00:33.360Z,11.31
2022-10-23T00:04:09.495Z,11.31
2022-10-23T00:07:11.978Z,11.32
2022-10-23T00:10:13.919Z,11.32
2022-10-23T00:13:15.649Z,11.36
2022-10-23T00:16:17.447Z,11.38
2022-10-23T00:19:19.460Z,11.41
2022-10-23T00:22:21.193Z,11.42
2022-10-23T00:25:23.136Z,11.43
2022-10-23T00:28:25.271Z,11.44
2022-10-23T00:31:26.983Z,11.46
2022-10-23T00:34:28.758Z,11.45
2022-10-23T00:37:30.644Z,11.46
2022-10-23T00:40:32.401Z,11.48
2022-10-23T00:43:35.228Z,11.48
2022-10-23T00:46:38.477Z,11.48
2022-10-23T00:49:42.835Z,11.46
2022-10-23T00:52:51.130Z,11.42
2022-10-23T00:55:54.261Z,11.39
2022-10-23T00:58:56.046Z,11.38
2022-10-23T01:01:58.959Z,11.40
2022-10-23T01:05:00.974Z,11.38
2022-10-23T01:08:08.064Z,11.37
2022-10-23T01:11:12.775Z,11.35
2022-10-23T01:14:23.497Z,11.34
2022-10-23T01:17:34.479Z,11.36
2022-10-23T01:20:45.675Z,11.39
2022-10-23T01:24:02.932Z,11.42
2022-10-23T01:27:21.024Z,11.46
2022-10-23T01:30:22.760Z,11.48
2022-10-23T01:33:27.986Z,11.52
2022-10-23T01:36:30.448Z,11.54
2022-10-23T01:39:39.061Z,11.55
2022-10-23T01:42:46.683Z,11.56
2022-10-23T01:45:51.792Z,11.58
2022-10-23T01:48:55.595Z,11.58
2022-10-23T01:52:00.620Z,11.60
2022-10-23T01:55:02.479Z,11.60
2022-10-23T01:58:05.082Z,11.61
2022-10-23T02:01:08.411Z,11.61
2022-10-23T02:04:13.059Z,11.58
2022-10-23T02:07:14.875Z,11.57
2022-10-23T02:10:17.933Z,11.54
2022-10-23T02:13:26.538Z,11.54
2022-10-23T02:16:42.482Z,11.52
2022-10-23T02:19:50.147Z,11.50
2022-10-23T02:23:00.751Z,11.49
2022-10-23T02:26:15.179Z,11.48
2022-10-23T02:29:23.505Z,11.49
2022-10-23T02:32:27.631Z,11.49
2022-10-23T02:35:29.437Z,11.50
2022-10-23T02:38:37.419Z,11.49
2022-10-23T02:41:42.216Z,11.48
2022-10-23T02:44:43.865Z,11.48
2022-10-23T02:47:53.058Z,11.47
2022-10-23T02:51:04.396Z,11.46
2022-10-23T02:54:12.215Z,11.47
2022-10-23T02:57:31.544Z,11.49
2022-10-23T03:00:34.248Z,11.53
2022-10-23T03:03:40.249Z,11.54
2022-10-23T03:06:42.051Z,11.51
2022-10-23T03:09:43.899Z,11.51
2022-10-23T03:12:47.168Z,11.52
2022-10-23T03:15:48.981Z,11.51
2022-10-23T03:18:50.779Z,11.49
2022-10-23T03:21:52.451Z,11.47
2022-10-23T03:24:54.184Z,11.46
2022-10-23T03:27:56.122Z,11.44
2022-10-23T03:30:57.950Z,11.43
2022-10-23T03:33:59.830Z,11.42
2022-10-23T03:37:01.601Z,11.40
2022-10-23T03:40:04.622Z,11.40
2022-10-23T03:43:06.498Z,11.39
2022-10-23T03:46:12.540Z,11.39
2022-10-23T03:49:14.451Z,11.40
2022-10-23T03:52:16.190Z,11.41
2022-10-23T03:55:18.093Z,11.40
2022-10-23T03:58:19.954Z,11.40
2022-10-23T04:01:21.869Z,11.38
2022-10-23T04:04:26.907Z,11.35
2022-10-23T04:07:28.671Z,11.25
2022-10-23T04:10:30.593Z,11.15
2022-10-23T04:13:32.349Z,11.08
2022-10-23T04:16:34.127Z,11.04
2022-10-23T04:19:35.831Z,11.02
2022-10-23T04:22:37.630Z,10.98
2022-10-23T04:25:39.360Z,10.98
2022-10-23T04:28:41.244Z,10.99
2022-10-23T04:31:43.094Z,11.00
2022-10-23T04:34:45.090Z,10.96
2022-10-23T04:37:47.225Z,10.92
2022-10-23T04:40:49.082Z,10.90
2022-10-23T04:43:50.924Z,10.87
2022-10-23T04:46:52.675Z,10.82
2022-10-23T04:49:54.327Z,10.82
2022-10-23T04:52:57.034Z,10.84
2022-10-23T04:55:59.594Z,10.83
2022-10-23T04:59:02.509Z,10.79
2022-10-23T05:02:04.393Z,10.71
2022-10-23T05:05:08.424Z,10.63
2022-10-23T05:08:13.201Z,10.57
2022-10-23T05:11:17.705Z,10.51
2022-10-23T05:14:22.685Z,10.45
2022-10-23T05:17:35.844Z,10.41
2022-10-23T05:20:38.031Z,10.36
2022-10-23T05:23:41.535Z,10.28
2022-10-23T05:26:43.452Z,10.22
2022-10-23T05:29:45.261Z,10.17
2022-10-23T05:32:47.200Z,10.13
2022-10-23T05:35:48.911Z,10.11
2022-10-23T05:38:51.195Z,10.11
2022-10-23T05:41:53.065Z,10.26
2022-10-23T05:44:54.835Z,10.46
2022-10-23T05:48:05.755Z,10.61
2022-10-23T05:51:23.488Z,10.72
2022-10-23T05:54:25.240Z,10.99
2022-10-23T05:57:26.978Z,11.46
2022-10-23T06:00:29.231Z,11.78
2022-10-23T06:03:30.938Z,12.10
2022-10-23T06:06:32.821Z,12.44
2022-10-23T06:09:34.527Z,12.69
2022-10-23T06:12:36.435Z,12.61
2022-10-23T06:15:38.467Z,12.32
2022-10-23T06:18:40.543Z,12.13
2022-10-23T06:21:42.572Z,11.99
2022-10-23T06:24:44.338Z,11.90
2022-10-23T06:27:46.133Z,11.87
2022-10-23T06:30:48.085Z,11.78
2022-10-23T06:33:49.781Z,11.71
2022-10-23T06:36:51.490Z,11.71
2022-10-23T06:39:53.479Z,11.65
2022-10-23T06:42:56.333Z,11.62
2022-10-23T06:46:01.876Z,11.68
2022-10-23T06:49:04.075Z,11.81
2022-10-23T06:52:11.045Z,11.87
2022-10-23T06:55:20.535Z,11.97
2022-10-23T06:58:22.307Z,12.02
2022-10-23T07:01:24.131Z,12.08
2022-10-23T07:04:26.198Z,12.21
2022-10-23T07:07:30.540Z,12.36
2022-10-23T07:10:32.387Z,12.47
2022-10-23T07:13:36.183Z,12.66
2022-10-23T07:16:37.937Z,12.87
2022-10-23T07:19:39.745Z,13.03
2022-10-23T07:22:41.779Z,13.12
2022-10-23T07:25:43.863Z,13.21
2022-10-23T07:28:47.279Z,13.24
2022-10-23T07:31:49.070Z,13.35
2022-10-23T07:34:50.945Z,13.45
2022-10-23T07:37:52.613Z,13.45
2022-10-23T07:40:57.856Z,13.47
2022-10-23T07:43:59.644Z,13.53
2022-10-23T07:47:01.431Z,13.53
2022-10-23T07:50:03.407Z,13.78
2022-10-23T07:53:05.326Z,14.20
2022-10-23T07:56:21.171Z,14.57
2022-10-23T07:59:22.932Z,14.84
2022-10-23T08:02:24.641Z,14.86
2022-10-23T08:05:26.472Z,14.86
2022-10-23T08:08:28.352Z,14.88
2022-10-23T08:11:35.360Z,14.87
2022-10-23T08:14:37.198Z,15.03
2022-10-23T08:17:39.399Z,15.39
2022-10-23T08:20:42.437Z,15.77
2022-10-23T08:23:44.851Z,16.17
2022-10-23T08:26:46.605Z,16.37
2022-10-23T08:29:48.386Z,16.70
2022-10-23T08:32:50.118Z,17.05
2022-10-23T08:35:52.001Z,17.16
2022-10-23T08:38:55.466Z,17.32
2022-10-23T08:41:57.381Z,17.48
2022-10-23T08:45:08.035Z,17.75
2022-10-23T08:48:31.104Z,18.11
2022-10-23T08:51:43.962Z,18.18
2022-10-23T08:55:03.309Z,17.81
2022-10-23T08:58:16.260Z,17.73
2022-10-23T09:01:42.920Z,18.09
2022-10-23T09:04:47.013Z,18.46
2022-10-23T09:07:51.441Z,18.84
2022-10-23T09:11:12.981Z,19.28
2022-10-23T09:14:36.467Z,19.45
2022-10-23T09:17:41.376Z,19.73
2022-10-23T09:20:46.170Z,19.92
2022-10-23T09:23:47.941Z,20.08
2022-10-23T09:26:52.366Z,20.09
2022-10-23T09:29:56.066Z,20.29
2022-10-23T09:32:58.899Z,20.17
2022-10-23T09:36:03.734Z,20.31
2022-10-23T09:39:05.501Z,20.35
2022-10-23T09:42:36.528Z,20.49
2022-10-23T09:45:41.879Z,20.31
2022-10-23T09:48:43.683Z,19.89
2022-10-23T09:52:08.741Z,19.48
2022-10-23T09:55:36.950Z,19.55
2022-10-23T09:58:54.136Z,19.65
2022-10-23T10:01:58.822Z,20.01
2022-10-23T10:05:20.156Z,20.75
2022-10-23T10:08:32.808Z,21.24
2022-10-23T10:11:54.601Z,21.38
2022-10-23T10:15:02.516Z,21.33
2022-10-23T10:18:18.241Z,21.32
2022-10-23T10:21:32.530Z,21.30
2022-10-23T10:24:56.139Z,20.90
2022-10-23T10:28:12.975Z,20.92
2022-10-23T10:31:26.935Z,21.27
2022-10-23T10:34:43.767Z,21.38
2022-10-23T10:38:03.254Z,21.61
2022-10-23T10:41:40.816Z,21.59
2022-10-23T10:45:11.579Z,21.59
2022-10-23T10:48:35.986Z,21.97
2022-10-23T10:51:47.080Z,22.23
2022-10-23T10:55:04.074Z,22.24
2022-10-23T10:58:42.783Z,22.40
2022-10-23T11:02:00.978Z,22.53
2022-10-23T11:05:11.155Z,22.85
2022-10-23T11:08:13.794Z,23.56
2022-10-23T11:11:27.186Z,23.77
2022-10-23T11:14:33.379Z,23.74
2022-10-23T11:17:40.160Z,23.77
2022-10-23T11:20:55.997Z,23.55
2022-10-23T11:24:14.813Z,23.40
2022-10-23T11:27:23.303Z,23.04
2022-10-23T11:30:40.353Z,22.60
2022-10-23T11:34:01.153Z,22.16
2022-10-23T11:37:05.015Z,21.54
2022-10-23T11:40:06.747Z,21.12
2022-10-23T11:43:09.346Z,20.75
2022-10-23T11:46:31.775Z,20.39
2022-10-23T11:49:33.588Z,20.14
2022-10-23T11:53:23.032Z,19.95
2022-10-23T11:56:17.020Z,19.73
2022-10-23T11:59:30.721Z,19.75
2022-10-23T12:02:39.787Z,19.82
2022-10-23T12:05:42.427Z,19.89
2022-10-23T12:08:44.456Z,19.96
2022-10-23T12:12:02.282Z,20.05
2022-10-23T12:15:16.109Z,20.08
2022-10-23T12:18:18.127Z,20.07
2022-10-23T12:21:22.899Z,20.07
2022-10-23T12:24:52.083Z,20.12
2022-10-23T12:28:02.635Z,20.14
2022-10-23T12:31:07.547Z,20.19
2022-10-23T12:34:33.464Z,20.16
2022-10-23T12:38:00.197Z,19.96
2022-10-23T12:41:21.292Z,19.73
2022-10-23T12:44:25.485Z,19.77
2022-10-23T12:47:27.562Z,19.86
2022-10-23T12:50:31.375Z,19.95
2022-10-23T12:53:33.239Z,19.95
2022-10-23T12:56:36.489Z,19.84
2022-10-23T12:59:39.280Z,19.83
2022-10-23T13:02:41.330Z,19.93
2022-10-23T13:05:43.550Z,20.08
2022-10-23T13:08:47.778Z,20.11
2022-10-23T13:11:51.184Z,20.12
2022-10-23T13:15:08.491Z,20.13
2022-10-23T13:18:14.256Z,20.11
2022-10-23T13:21:22.564Z,20.13
2022-10-23T13:24:27.223Z,20.22
2022-10-23T13:27:34.000Z,20.18
2022-10-23T13:30:39.150Z,20.08
2022-10-23T13:33:43.290Z,20.03
2022-10-23T13:36:58.124Z,19.93
2022-10-23T13:40:05.065Z,19.81
2022-10-23T13:43:14.749Z,19.64
2022-10-23T13:46:18.523Z,19.38
2022-10-23T13:49:20.838Z,19.19
2022-10-23T13:52:23.898Z,19.05
2022-10-23T13:55:26.299Z,18.97
2022-10-23T13:58:28.044Z,18.87
2022-10-23T14:01:33.820Z,18.77
2022-10-23T14:04:35.570Z,18.71
2022-10-23T14:07:37.419Z,18.64
2022-10-23T14:10:39.075Z,18.52
2022-10-23T14:13:41.299Z,18.46
2022-10-23T14:16:43.137Z,18.41
2022-10-23T14:19:45.801Z,18.30
2022-10-23T14:22:47.885Z,18.22
2022-10-23T14:25:49.846Z,18.16
2022-10-23T14:28:56.413Z,18.10
2022-10-23T14:31:59.453Z,17.99
2022-10-23T14:35:04.154Z,17.85
2022-10-23T14:38:06.044Z,17.73
2022-10-23T14:41:16.275Z,17.64
2022-10-23T14:44:18.002Z,17.60
2022-10-23T14:47:19.955Z,17.53
2022-10-23T14:50:21.958Z,17.40
2022-10-23T14:53:23.671Z,17.24
2022-10-23T14:56:25.717Z,17.05
2022-10-23T14:59:27.637Z,16.85
2022-10-23T15:02:29.407Z,16.63
2022-10-23T15:05:31.108Z,16.43
2022-10-23T15:08:33.183Z,16.27
2022-10-23T15:11:34.904Z,16.15
2022-10-23T15:14:36.705Z,16.05
2022-10-23T15:17:39.323Z,15.93
2022-10-23T15:20:41.060Z,15.80
2022-10-23T15:23:44.365Z,15.68
2022-10-23T15:26:46.647Z,15.52
2022-10-23T15:29:48.480Z,15.29
2022-10-23T15:32:50.217Z,15.10
2022-10-23T15:35:52.561Z,14.87
2022-10-23T15:38:54.288Z,14.67
2022-10-23T15:41:57.090Z,14.54
2022-10-23T15:44:58.851Z,14.44
2022-10-23T15:48:00.659Z,14.33
2022-10-23T15:51:02.447Z,14.21
2022-10-23T15:54:06.351Z,13.91
2022-10-23T15:57:08.095Z,13.64
2022-10-23T16:00:14.793Z,13.54
2022-10-23T16:03:17.801Z,13.56
2022-10-23T16:06:20.608Z,13.50
2022-10-23T16:09:22.527Z,13.43
2022-10-23T16:12:24.851Z,13.37
2022-10-23T16:15:26.744Z,13.31
2022-10-23T16:18:28.953Z,13.18
2022-10-23T16:21:33.289Z,13.05
2022-10-23T16:24:35.459Z,12.93
2022-10-23T16:27:37.249Z,12.80
2022-10-23T16:30:43.207Z,12.70
2022-10-23T16:33:45.052Z,12.63
2022-10-23T16:36:47.255Z,12.47
2022-10-23T16:39:48.910Z,12.24
2022-10-23T16:42:50.756Z,12.06
2022-10-23T16:46:10.735Z,11.92
2022-10-23T16:49:14.157Z,11.75
2022-10-23T16:52:15.841Z,11.64
2022-10-23T16:55:17.747Z,11.52
2022-10-23T16:58:19.419Z,11.40
2022-10-23T17:01:23.580Z,11.31
2022-10-23T17:04:25.446Z,11.25
2022-10-23T17:07:27.266Z,11.19
2022-10-23T17:10:29.059Z,11.15
2022-10-23T17:13:30.794Z,11.08
2022-10-23T17:16:37.454Z,10.89
2022-10-23T17:19:46.008Z,10.80
2022-10-23T17:22:48.598Z,10.69
2022-10-23T17:25:50.351Z,10.51
2022-10-23T17:28:52.634Z,10.38
2022-10-23T17:31:54.698Z,10.29
2022-10-23T17:34:56.394Z,10.19
2022-10-23T17:37:58.420Z,10.12
2022-10-23T17:41:00.184Z,10.07
2022-10-23T17:44:02.034Z,10.01
2022-10-23T17:47:03.784Z,9.94
2022-10-23T17:50:09.565Z,9.83
2022-10-23T17:53:11.354Z,9.73
2022-10-23T17:56:19.284Z,9.65
2022-10-23T17:59:21.066Z,9.59
2022-10-23T18:02:23.083Z,9.54
2022-10-23T18:05:24.912Z,9.49
2022-10-23T18:08:26.938Z,9.43
2022-10-23T18:11:33.723Z,9.39
2022-10-23T18:14:37.532Z,9.37
2022-10-23T18:17:39.620Z,9.33
2022-10-23T18:20:42.047Z,9.33
2022-10-23T18:23:44.635Z,9.27
2022-10-23T18:26:48.269Z,9.01
2022-10-23T18:29:51.096Z,8.66
2022-10-23T18:32:52.888Z,8.40
2022-10-23T18:35:54.592Z,8.37
2022-10-23T18:38:56.521Z,8.41
2022-10-23T18:41:58.889Z,8.44
2022-10-23T18:45:01.063Z,8.18
2022-10-23T18:48:03.489Z,7.96
2022-10-23T18:51:05.738Z,7.82
2022-10-23T18:54:10.692Z,7.74
2022-10-23T18:57:12.480Z,7.68
2022-10-23T19:00:14.591Z,7.57
2022-10-23T19:03:16.621Z,7.49
2022-10-23T19:06:19.108Z,7.43
2022-10-23T19:09:20.808Z,7.42
2022-10-23T19:12:23.281Z,7.49
2022-10-23T19:15:25.175Z,7.45
2022-10-23T19:18:26.940Z,7.35
2022-10-23T19:21:31.890Z,7.29
2022-10-23T19:24:39.458Z,7.28
2022-10-23T19:27:42.382Z,7.25
2022-10-23T19:30:44.087Z,7.30
2022-10-23T19:33:45.854Z,7.37
2022-10-23T19:36:48.563Z,7.41
2022-10-23T19:39:50.313Z,7.47
2022-10-23T19:42:54.288Z,7.31
2022-10-23T19:45:56.134Z,7.27
2022-10-23T19:48:57.893Z,7.32
2022-10-23T19:51:59.623Z,7.33
2022-10-23T19:55:03.403Z,7.30
2022-10-23T19:58:05.503Z,7.10
2022-10-23T20:01:12.515Z,6.86
2022-10-23T20:04:14.927Z,6.63
2022-10-23T20:07:17.073Z,6.55
2022-10-23T20:10:19.038Z,6.45
2022-10-23T20:13:21.343Z,6.34
2022-10-23T20:16:29.125Z,6.33
2022-10-23T20:19:30.832Z,6.41
2022-10-23T20:22:32.550Z,6.48
2022-10-23T20:25:34.236Z,6.50
2022-10-23T20:28:36.084Z,6.46
2022-10-23T20:31:39.531Z,6.45
2022-10-23T20:34:42.050Z,6.55
2022-10-23T20:37:43.864Z,6.60
2022-10-23T20:40:46.184Z,6.61
2022-10-23T20:43:48.565Z,6.60
2022-10-23T20:46:50.525Z,6.62
2022-10-23T20:49:52.419Z,6.65
2022-10-23T20:52:54.164Z,6.69
2022-10-23T20:55:56.011Z,6.72
2022-10-23T20:58:59.370Z,6.75
2022-10-23T21:02:01.199Z,6.76
2022-10-23T21:05:03.044Z,6.78
2022-10-23T21:08:05.020Z,6.81
2022-10-23T21:11:08.542Z,6.81
2022-10-23T21:14:10.278Z,6.63
2022-10-23T21:17:16.908Z,6.50
2022-10-23T21:20:18.622Z,6.47
2022-10-23T21:23:21.734Z,6.43
2022-10-23T21:26:24.246Z,6.42
2022-10-23T21:29:25.959Z,6.38
2022-10-23T21:32:27.694Z,6.33
2022-10-23T21:35:30.191Z,6.25
2022-10-23T21:38:32.162Z,6.24
2022-10-23T21:41:34.654Z,6.25
2022-10-23T21:44:36.520Z,6.23
2022-10-23T21:47:38.555Z,6.22
2022-10-23T21:50:40.389Z,6.21
2022-10-23T21:53:42.126Z,6.20
2022-10-23T21:56:45.599Z,6.13
2022-10-23T21:59:48.155Z,6.12
2022-10-23T22:02:50.029Z,6.12
2022-10-23T22:05:52.205Z,6.09
2022-10-23T22:08:55.727Z,6.05
2022-10-23T22:12:00.044Z,6.03
2022-10-23T22:15:02.099Z,6.01
2022-10-23T22:18:03.899Z,5.97
2022-10-23T22:21:09.332Z,5.92
2022-10-23T22:24:12.005Z,5.88
2022-10-23T22:27:13.723Z,5.87
2022-10-23T22:30:15.821Z,5.88
2022-10-23T22:33:17.484Z,5.88
2022-10-23T22:36:19.161Z,5.86
2022-10-23T22:39:21.269Z,5.84
2022-10-23T22:42:23.081Z,5.83
2022-10-23T22:45:24.843Z,5.80
2022-10-23T22:48:27.774Z,5.80
2022-10-23T22:51:30.066Z,5.80
2022-10-23T22:54:32.312Z,5.82
2022-10-23T22:57:34.249Z,5.81
2022-10-23T23:00:42.742Z,5.81
2022-10-23T23:03:46.387Z,5.89
2022-10-23T23:07:10.048Z,5.96
2022-10-23T23:10:26.435Z,5.94
2022-10-23T23:13:29.223Z,5.92
2022-10-23T23:16:32.249Z,5.91
2022-10-23T23:19:34.625Z,5.92
2022-10-23T23:22:36.629Z,5.94
2022-10-23T23:25:50.199Z,5.95
2022-10-23T23:28:53.902Z,5.98
2022-10-23T23:31:55.894Z,5.99
2022-10-23T23:34:59.520Z,5.99
2022-10-23T23:38:01.468Z,5.99
2022-10-23T23:41:04.823Z,6.00
2022-10-23T23:44:08.509Z,5.98
2022-10-23T23:47:10.366Z,5.96
2022-10-23T23:50:12.553Z,5.94
2022-10-23T23:53:14.464Z,5.95
2022-10-23T23:56:16.709Z,5.97
2022-10-23T23:59:18.433Z,6.01
